sensor_id;sensor_type;location;lat;lon;timestamp;pressure;altitude;pressure_sealevel;temperature;humidity
31088;BME280;17745;55.914;37.554;2024-02-26T00:01:08;100145.22;;;2.35;58.23
31088;BME280;17745;55.914;37.554;2024-02-26T00:03:40;100144.84;;;2.38;57.90
31088;BME280;17745;55.914;37.554;2024-02-26T00:06:23;100143.22;;;2.37;57.55
31088;BME280;17745;55.914;37.554;2024-02-26T00:09:05;100148.78;;;2.34;57.39
31088;BME280;17745;55.914;37.554;2024-02-26T00:11:37;100145.22;;;2.35;57.75
31088;BME280;17745;55.914;37.554;2024-02-26T00:14:08;100141.25;;;2.39;57.68
31088;BME280;17745;55.914;37.554;2024-02-26T00:16:39;100140.53;;;2.45;57.75
31088;BME280;17745;55.914;37.554;2024-02-26T00:19:09;100148.75;;;2.42;57.19
31088;BME280;17745;55.914;37.554;2024-02-26T00:21:39;100133.69;;;2.44;57.24
31088;BME280;17745;55.914;37.554;2024-02-26T00:24:07;100138.56;;;2.47;57.32
31088;BME280;17745;55.914;37.554;2024-02-26T00:26:38;100139.84;;;2.51;57.67
31088;BME280;17745;55.914;37.554;2024-02-26T00:29:08;100136.88;;;2.54;57.59
31088;BME280;17745;55.914;37.554;2024-02-26T00:31:40;100133.28;;;2.55;57.70
31088;BME280;17745;55.914;37.554;2024-02-26T00:34:09;100128.06;;;2.55;57.61
31088;BME280;17745;55.914;37.554;2024-02-26T00:36:36;100142.28;;;2.53;57.57
31088;BME280;17745;55.914;37.554;2024-02-26T00:39:04;100128.56;;;2.51;57.25
31088;BME280;17745;55.914;37.554;2024-02-26T00:41:32;100133.69;;;2.44;57.12
31088;BME280;17745;55.914;37.554;2024-02-26T00:44:03;100131.59;;;2.39;57.39
31088;BME280;17745;55.914;37.554;2024-02-26T00:46:42;100125.72;;;2.37;57.38
31088;BME280;17745;55.914;37.554;2024-02-26T00:49:10;100123.13;;;2.37;57.39
31088;BME280;17745;55.914;37.554;2024-02-26T00:51:37;100124.09;;;2.36;57.30
31088;BME280;17745;55.914;37.554;2024-02-26T00:54:04;100125.94;;;2.36;57.15
31088;BME280;17745;55.914;37.554;2024-02-26T00:56:32;100123.47;;;2.34;56.90
31088;BME280;17745;55.914;37.554;2024-02-26T00:58:59;100125.63;;;2.31;56.69
31088;BME280;17745;55.914;37.554;2024-02-26T01:01:27;100120.94;;;2.26;56.71
31088;BME280;17745;55.914;37.554;2024-02-26T01:03:56;100116.03;;;2.23;56.38
31088;BME280;17745;55.914;37.554;2024-02-26T01:06:23;100120.28;;;2.24;56.45
31088;BME280;17745;55.914;37.554;2024-02-26T01:08:52;100094.16;;;2.24;56.24
31088;BME280;17745;55.914;37.554;2024-02-26T01:11:19;100119.81;;;2.20;56.19
31088;BME280;17745;55.914;37.554;2024-02-26T01:13:46;100114.75;;;2.19;55.89
31088;BME280;17745;55.914;37.554;2024-02-26T01:16:14;100110.53;;;2.18;56.02
31088;BME280;17745;55.914;37.554;2024-02-26T01:18:42;100117.44;;;2.10;55.45
31088;BME280;17745;55.914;37.554;2024-02-26T01:21:11;100116.97;;;2.07;55.65
31088;BME280;17745;55.914;37.554;2024-02-26T01:23:39;100117.78;;;2.07;55.87
31088;BME280;17745;55.914;37.554;2024-02-26T01:26:07;100111.41;;;2.10;55.84
31088;BME280;17745;55.914;37.554;2024-02-26T01:28:35;100112.84;;;2.12;55.35
31088;BME280;17745;55.914;37.554;2024-02-26T01:31:17;100112.66;;;2.14;55.20
31088;BME280;17745;55.914;37.554;2024-02-26T01:33:46;100104.19;;;2.12;54.75
31088;BME280;17745;55.914;37.554;2024-02-26T01:36:19;100121.50;;;2.13;55.22
31088;BME280;17745;55.914;37.554;2024-02-26T01:38:47;100114.97;;;2.17;54.92
31088;BME280;17745;55.914;37.554;2024-02-26T01:41:14;100111.72;;;2.15;54.20
31088;BME280;17745;55.914;37.554;2024-02-26T01:43:45;100122.84;;;2.09;54.47
31088;BME280;17745;55.914;37.554;2024-02-26T01:46:13;100120.06;;;2.10;54.57
31088;BME280;17745;55.914;37.554;2024-02-26T01:48:44;100107.78;;;2.11;54.18
31088;BME280;17745;55.914;37.554;2024-02-26T01:51:14;100113.84;;;2.11;54.47
31088;BME280;17745;55.914;37.554;2024-02-26T01:53:43;100110.06;;;2.14;54.29
31088;BME280;17745;55.914;37.554;2024-02-26T01:56:19;100108.09;;;2.16;54.10
31088;BME280;17745;55.914;37.554;2024-02-26T01:58:57;100110.53;;;2.18;54.05
31088;BME280;17745;55.914;37.554;2024-02-26T02:01:37;100103.03;;;2.14;53.84
31088;BME280;17745;55.914;37.554;2024-02-26T02:04:38;100111.87;;;2.13;53.94
31088;BME280;17745;55.914;37.554;2024-02-26T02:07:10;100097.00;;;2.14;53.84
31088;BME280;17745;55.914;37.554;2024-02-26T02:09:43;100096.34;;;2.12;53.63
31088;BME280;17745;55.914;37.554;2024-02-26T02:12:14;100096.34;;;2.12;53.69
31088;BME280;17745;55.914;37.554;2024-02-26T02:14:43;100095.19;;;2.14;53.59
31088;BME280;17745;55.914;37.554;2024-02-26T02:17:11;100089.81;;;2.16;53.58
31088;BME280;17745;55.914;37.554;2024-02-26T02:19:39;100091.31;;;2.10;53.57
31088;BME280;17745;55.914;37.554;2024-02-26T02:22:08;100087.59;;;2.05;53.48
31088;BME280;17745;55.914;37.554;2024-02-26T02:24:35;100087.13;;;2.01;52.90
31088;BME280;17745;55.914;37.554;2024-02-26T02:27:04;100086.34;;;2.00;52.98
31088;BME280;17745;55.914;37.554;2024-02-26T02:29:32;100095.59;;;2.03;52.97
31088;BME280;17745;55.914;37.554;2024-02-26T02:31:59;100081.91;;;2.01;53.19
31088;BME280;17745;55.914;37.554;2024-02-26T02:34:29;100090.28;;;1.96;53.01
31088;BME280;17745;55.914;37.554;2024-02-26T02:36:57;100095.38;;;1.90;52.81
31088;BME280;17745;55.914;37.554;2024-02-26T02:39:26;100086.44;;;1.84;52.77
31088;BME280;17745;55.914;37.554;2024-02-26T02:41:55;100084.34;;;1.79;52.71
31088;BME280;17745;55.914;37.554;2024-02-26T02:44:22;100095.94;;;1.77;52.71
31088;BME280;17745;55.914;37.554;2024-02-26T02:46:49;100089.91;;;1.76;52.81
31088;BME280;17745;55.914;37.554;2024-02-26T02:49:19;100092.00;;;1.81;52.82
31088;BME280;17745;55.914;37.554;2024-02-26T02:51:48;100094.44;;;1.82;52.92
31088;BME280;17745;55.914;37.554;2024-02-26T02:54:15;100079.75;;;1.81;52.70
31088;BME280;17745;55.914;37.554;2024-02-26T02:56:45;100081.84;;;1.86;52.92
31088;BME280;17745;55.914;37.554;2024-02-26T02:59:14;100094.56;;;1.89;52.88
31088;BME280;17745;55.914;37.554;2024-02-26T03:01:45;100087.34;;;1.91;52.71
31088;BME280;17745;55.914;37.554;2024-02-26T03:04:13;100089.16;;;1.91;52.66
31088;BME280;17745;55.914;37.554;2024-02-26T03:06:41;100083.31;;;1.89;52.45
31088;BME280;17745;55.914;37.554;2024-02-26T03:09:11;100088.53;;;1.89;52.45
31088;BME280;17745;55.914;37.554;2024-02-26T03:11:52;100074.84;;;1.87;52.36
31088;BME280;17745;55.914;37.554;2024-02-26T03:14:20;100069.94;;;1.83;52.34
31088;BME280;17745;55.914;37.554;2024-02-26T03:16:52;100076.34;;;1.81;52.48
31088;BME280;17745;55.914;37.554;2024-02-26T03:19:24;100077.78;;;1.83;52.58
31088;BME280;17745;55.914;37.554;2024-02-26T03:22:02;100079.22;;;1.86;52.21
31088;BME280;17745;55.914;37.554;2024-02-26T03:24:40;100078.44;;;1.85;52.24
31088;BME280;17745;55.914;37.554;2024-02-26T03:27:11;100075.63;;;1.87;52.23
31088;BME280;17745;55.914;37.554;2024-02-26T03:29:39;100070.75;;;1.84;51.81
31088;BME280;17745;55.914;37.554;2024-02-26T03:32:13;100080.38;;;1.83;52.26
31088;BME280;17745;55.914;37.554;2024-02-26T03:34:45;100079.22;;;1.86;52.22
31088;BME280;17745;55.914;37.554;2024-02-26T03:37:45;100072.38;;;1.85;51.97
31088;BME280;17745;55.914;37.554;2024-02-26T03:40:19;100064.44;;;1.78;51.88
31088;BME280;17745;55.914;37.554;2024-02-26T03:42:54;100070.00;;;1.75;51.91
31088;BME280;17745;55.914;37.554;2024-02-26T03:45:46;100071.97;;;1.73;51.69
31088;BME280;17745;55.914;37.554;2024-02-26T03:49:04;100072.81;;;1.74;51.95
31088;BME280;17745;55.914;37.554;2024-02-26T03:51:55;100072.62;;;1.75;52.00
31088;BME280;17745;55.914;37.554;2024-02-26T03:55:28;100082.25;;;1.75;51.77
31088;BME280;17745;55.914;37.554;2024-02-26T03:58:07;100076.91;;;1.68;51.39
31088;BME280;17745;55.914;37.554;2024-02-26T04:00:38;100077.53;;;1.70;51.63
31088;BME280;17745;55.914;37.554;2024-02-26T04:03:09;100071.16;;;1.73;51.60
31088;BME280;17745;55.914;37.554;2024-02-26T04:05:37;100070.50;;;1.70;51.48
31088;BME280;17745;55.914;37.554;2024-02-26T04:08:08;100074.28;;;1.68;51.60
31088;BME280;17745;55.914;37.554;2024-02-26T04:10:46;100080.16;;;1.70;51.69
31088;BME280;17745;55.914;37.554;2024-02-26T04:13:33;100072.47;;;1.68;51.37
31088;BME280;17745;55.914;37.554;2024-02-26T04:19:07;100065.84;;;1.66;51.29
31088;BME280;17745;55.914;37.554;2024-02-26T04:21:41;100063.38;;;1.64;51.29
31088;BME280;17745;55.914;37.554;2024-02-26T04:24:27;100070.56;;;1.62;51.42
31088;BME280;17745;55.914;37.554;2024-02-26T04:26:57;100076.59;;;1.63;51.29
31088;BME280;17745;55.914;37.554;2024-02-26T04:29:32;100072.03;;;1.65;51.33
31088;BME280;17745;55.914;37.554;2024-02-26T04:32:25;100077.91;;;1.67;51.32
31088;BME280;17745;55.914;37.554;2024-02-26T04:35:02;100076.28;;;1.66;51.03
31088;BME280;17745;55.914;37.554;2024-02-26T04:37:39;100072.53;;;1.60;50.77
31088;BME280;17745;55.914;37.554;2024-02-26T04:40:17;100072.88;;;1.57;50.69
31088;BME280;17745;55.914;37.554;2024-02-26T04:42:51;100072.25;;;1.55;50.66
31088;BME280;17745;55.914;37.554;2024-02-26T05:15:02;100071.47;;;1.78;50.24
31088;BME280;17745;55.914;37.554;2024-02-26T05:18:01;100071.91;;;1.81;50.20
31088;BME280;17745;55.914;37.554;2024-02-26T05:20:42;100067.63;;;1.89;50.22
31088;BME280;17745;55.914;37.554;2024-02-26T05:23:33;100069.44;;;1.88;50.15
31088;BME280;17745;55.914;37.554;2024-02-26T05:26:35;100068.28;;;1.91;50.08
31088;BME280;17745;55.914;37.554;2024-02-26T05:29:12;100065.03;;;1.89;49.99
31088;BME280;17745;55.914;37.554;2024-02-26T08:58:00;100026.53;;;4.56;44.59
31088;BME280;17745;55.914;37.554;2024-02-26T09:00:33;100021.56;;;4.68;44.38
31088;BME280;17745;55.914;37.554;2024-02-26T09:03:19;100021.84;;;4.80;44.14
31088;BME280;17745;55.914;37.554;2024-02-26T09:05:53;100022.28;;;4.91;43.98
31088;BME280;17745;55.914;37.554;2024-02-26T09:08:41;100024.75;;;4.99;44.02
31088;BME280;17745;55.914;37.554;2024-02-26T09:11:30;100028.41;;;5.05;44.10
31088;BME280;17745;55.914;37.554;2024-02-26T09:14:13;100028.03;;;5.14;44.25
31088;BME280;17745;55.914;37.554;2024-02-26T09:16:44;100035.94;;;5.21;44.25
31088;BME280;17745;55.914;37.554;2024-02-26T09:19:29;100042.06;;;5.35;44.41
31088;BME280;17745;55.914;37.554;2024-02-26T09:21:59;100037.00;;;5.34;44.00
31088;BME280;17745;55.914;37.554;2024-02-26T09:27:51;100034.59;;;5.39;43.96
31088;BME280;17745;55.914;37.554;2024-02-26T09:30:39;100028.97;;;5.49;43.75
31088;BME280;17745;55.914;37.554;2024-02-26T09:36:06;100041.09;;;5.50;43.84
31088;BME280;17745;55.914;37.554;2024-02-26T09:38:54;100030.37;;;5.44;43.42
31088;BME280;17745;55.914;37.554;2024-02-26T09:41:30;100045.09;;;5.39;43.67
31088;BME280;17745;55.914;37.554;2024-02-26T09:44:07;100029.78;;;5.42;43.79
31088;BME280;17745;55.914;37.554;2024-02-26T09:50:08;100021.66;;;5.37;43.24
31088;BME280;17745;55.914;37.554;2024-02-26T09:52:45;100016.53;;;5.15;43.28
31088;BME280;17745;55.914;37.554;2024-02-26T09:55:18;100021.53;;;5.04;43.29
31088;BME280;17745;55.914;37.554;2024-02-26T09:57:53;100022.94;;;4.99;43.27
31088;BME280;17745;55.914;37.554;2024-02-26T10:03:23;100024.72;;;5.48;43.24
31088;BME280;17745;55.914;37.554;2024-02-26T10:06:32;100024.59;;;5.90;43.41
31088;BME280;17745;55.914;37.554;2024-02-26T10:09:28;100015.12;;;6.02;42.67
31088;BME280;17745;55.914;37.554;2024-02-26T10:12:06;100012.31;;;6.04;42.92
31088;BME280;17745;55.914;37.554;2024-02-26T10:14:39;100007.25;;;6.09;42.79
31088;BME280;17745;55.914;37.554;2024-02-26T10:17:23;99989.81;;;5.94;42.36
31088;BME280;17745;55.914;37.554;2024-02-26T10:19:54;99995.84;;;5.68;42.54
31088;BME280;17745;55.914;37.554;2024-02-26T10:22:30;100007.78;;;5.64;42.75
31088;BME280;17745;55.914;37.554;2024-02-26T10:25:08;100000.91;;;5.56;42.52
31088;BME280;17745;55.914;37.554;2024-02-26T11:16:13;99992.06;;;6.04;42.28
31088;BME280;17745;55.914;37.554;2024-02-26T11:18:50;99988.84;;;6.02;42.00
31088;BME280;17745;55.914;37.554;2024-02-26T11:21:57;99974.47;;;5.98;42.08
31088;BME280;17745;55.914;37.554;2024-02-26T11:28:13;99987.63;;;6.05;41.51
31088;BME280;17745;55.914;37.554;2024-02-26T11:50:48;99967.12;;;5.46;42.27
31088;BME280;17745;55.914;37.554;2024-02-26T11:53:51;99966.31;;;5.39;42.43
31088;BME280;17745;55.914;37.554;2024-02-26T11:56:23;99974.38;;;5.37;42.16
31088;BME280;17745;55.914;37.554;2024-02-26T11:58:53;99977.03;;;5.44;42.09
31088;BME280;17745;55.914;37.554;2024-02-26T12:01:38;99969.56;;;5.48;42.08
31088;BME280;17745;55.914;37.554;2024-02-26T12:04:08;99972.81;;;5.50;42.13
31088;BME280;17745;55.914;37.554;2024-02-26T12:09:44;99976.22;;;5.37;42.11
31088;BME280;17745;55.914;37.554;2024-02-26T12:12:27;99972.56;;;5.31;42.21
31088;BME280;17745;55.914;37.554;2024-02-26T12:15:11;99977.22;;;5.29;42.30
31088;BME280;17745;55.914;37.554;2024-02-26T12:17:38;99977.19;;;5.22;42.21
31088;BME280;17745;55.914;37.554;2024-02-26T12:20:20;99974.97;;;5.19;42.31
31088;BME280;17745;55.914;37.554;2024-02-26T12:22:53;99976.78;;;5.25;42.43
31088;BME280;17745;55.914;37.554;2024-02-26T12:25:29;99964.47;;;5.26;42.29
31088;BME280;17745;55.914;37.554;2024-02-26T12:28:00;99975.63;;;5.35;42.40
31088;BME280;17745;55.914;37.554;2024-02-26T12:30:32;99960.88;;;5.47;42.24
31088;BME280;17745;55.914;37.554;2024-02-26T12:36:53;99959.06;;;5.48;42.19
31088;BME280;17745;55.914;37.554;2024-02-26T12:39:38;99967.75;;;5.55;42.36
31088;BME280;17745;55.914;37.554;2024-02-26T13:18:21;99958.06;;;5.55;42.80
31088;BME280;17745;55.914;37.554;2024-02-26T13:21:26;99951.78;;;5.50;42.95
31088;BME280;17745;55.914;37.554;2024-02-26T13:24:06;99959.25;;;5.46;42.94
31088;BME280;17745;55.914;37.554;2024-02-26T13:27:01;99952.00;;;5.55;42.78
31088;BME280;17745;55.914;37.554;2024-02-26T14:19:02;99960.50;;;4.81;41.11
31088;BME280;17745;55.914;37.554;2024-02-26T14:22:03;99965.69;;;4.68;40.92
31088;BME280;17745;55.914;37.554;2024-02-26T14:25:02;99961.34;;;4.53;40.94
31088;BME280;17745;55.914;37.554;2024-02-26T14:27:39;99969.75;;;4.35;40.40
31088;BME280;17745;55.914;37.554;2024-02-26T15:03:21;99961.16;;;3.26;40.95
31088;BME280;17745;55.914;37.554;2024-02-26T15:08:47;99960.25;;;2.97;41.00
31088;BME280;17745;55.914;37.554;2024-02-26T15:12:18;99960.09;;;2.83;41.11
31088;BME280;17745;55.914;37.554;2024-02-26T15:15:47;99956.66;;;2.68;41.26
31088;BME280;17745;55.914;37.554;2024-02-26T15:26:45;99963.97;;;2.27;41.53
31088;BME280;17745;55.914;37.554;2024-02-26T15:29:16;99964.75;;;2.13;41.70
31088;BME280;17745;55.914;37.554;2024-02-26T15:32:01;99969.06;;;2.06;41.69
31088;BME280;17745;55.914;37.554;2024-02-26T15:56:17;99997.06;;;1.50;42.10
31088;BME280;17745;55.914;37.554;2024-02-26T16:42:28;99983.38;;;0.85;42.77
31088;BME280;17745;55.914;37.554;2024-02-26T16:45:56;99991.56;;;0.82;42.83
31088;BME280;17745;55.914;37.554;2024-02-26T17:09:30;99987.56;;;0.54;43.13
31088;BME280;17745;55.914;37.554;2024-02-26T19:29:44;99999.66;;;0.22;43.72
31088;BME280;17745;55.914;37.554;2024-02-26T19:32:14;100015.28;;;0.22;43.73
31088;BME280;17745;55.914;37.554;2024-02-26T22:43:25;100115.94;;;-0.36;45.95
31088;BME280;17745;55.914;37.554;2024-02-26T22:46:56;100114.13;;;-0.36;45.97
31088;BME280;17745;55.914;37.554;2024-02-26T22:49:59;100119.34;;;-0.36;46.09
31088;BME280;17745;55.914;37.554;2024-02-26T22:53:11;100118.37;;;-0.35;46.10
31088;BME280;17745;55.914;37.554;2024-02-26T23:10:01;100134.94;;;-0.36;46.29
31088;BME280;17745;55.914;37.554;2024-02-26T23:12:34;100139.34;;;-0.36;46.35
31088;BME280;17745;55.914;37.554;2024-02-26T23:15:12;100137.41;;;-0.34;46.29
31088;BME280;17745;55.914;37.554;2024-02-26T23:17:45;100137.09;;;-0.31;46.21
31088;BME280;17745;55.914;37.554;2024-02-26T23:20:26;100138.87;;;-0.32;46.31
31088;BME280;17745;55.914;37.554;2024-02-26T23:23:19;100134.63;;;-0.33;46.33
31088;BME280;17745;55.914;37.554;2024-02-26T23:28:53;100138.72;;;-0.30;46.35
31088;BME280;17745;55.914;37.554;2024-02-26T23:31:47;100142.16;;;-0.30;46.35
31088;BME280;17745;55.914;37.554;2024-02-26T23:34:25;100144.44;;;-0.26;46.36
31088;BME280;17745;55.914;37.554;2024-02-26T23:37:09;100131.41;;;-0.26;46.42
31088;BME280;17745;55.914;37.554;2024-02-26T23:40:07;100128.00;;;-0.27;46.62
31088;BME280;17745;55.914;37.554;2024-02-26T23:42:36;100136.63;;;-0.26;46.72
31088;BME280;17745;55.914;37.554;2024-02-26T23:45:12;100138.06;;;-0.24;46.70
31088;BME280;17745;55.914;37.554;2024-02-26T23:47:45;100141.19;;;-0.20;46.67
31088;BME280;17745;55.914;37.554;2024-02-26T23:50:16;100143.47;;;-0.17;46.65
31088;BME280;17745;55.914;37.554;2024-02-26T23:52:47;100140.72;;;-0.16;46.72
31088;BME280;17745;55.914;37.554;2024-02-26T23:55:22;100142.19;;;-0.13;46.68
31088;BME280;17745;55.914;37.554;2024-02-26T23:57:56;100133.38;;;-0.12;46.82
